This is the latest recevied weather packets stored in our database for station/object AA8FM-13. If no packets are shown the sender has not sent any weather packets the latest 10 day(s).
| Time | Temp. | Humidity | Pressure | Rain* | Wind** | Luminosity | Snow |
|---|---|---|---|---|---|---|---|
| 1778027224 | 20° C | 53% | 1006.2 hPa | 0 mm | - | 0 W/m² | - |
| 1778026920 | 20° C | 55% | 1006.2 hPa | 0 mm | - | 1 W/m² | - |
| 1778026610 | 20.56° C | 55% | 1006.2 hPa | 0 mm | - | 1 W/m² | - |
| 1778026308 | 20.56° C | 54% | 1006.2 hPa | 0 mm | - | 2 W/m² | - |
| 1778026005 | 21.11° C | 51% | 1006.2 hPa | 0 mm | - | 3 W/m² | - |
| 1778025702 | 21.11° C | 50% | 1006.2 hPa | 0 mm | - | 4 W/m² | - |
| 1778025400 | 21.11° C | 50% | 1006.1 hPa | 0 mm | - | 5 W/m² | - |
| 1778025097 | 21.67° C | 49% | 1006 hPa | 0 mm | - | 8 W/m² | - |
| 1778024794 | 21.67° C | 48% | 1006 hPa | 0 mm | - | 12 W/m² | - |
| 1778024491 | 21.67° C | 48% | 1005.9 hPa | 0 mm | - | 18 W/m² | - |
| 1778024188 | 21.67° C | 49% | 1006.2 hPa | 0 mm | - | 20 W/m² | - |
| 1778023886 | 21.67° C | 49% | 1005.9 hPa | 0 mm | - | 18 W/m² | - |
| 1778023583 | 21.67° C | 48% | 1006.2 hPa | 0 mm | - | 20 W/m² | - |
| 1778023281 | 21.67° C | 48% | 1006.3 hPa | 0 mm | - | 26 W/m² | - |
| 1778022977 | 21.67° C | 48% | 1006.2 hPa | 0 mm | - | 31 W/m² | - |
| 1778022676 | 21.67° C | 48% | 1006.2 hPa | 0 mm | - | 31 W/m² | - |
| 1778022374 | 21.67° C | 47% | 1005.9 hPa | 0 mm | - | 41 W/m² | - |
| 1778022070 | 22.22° C | 47% | 1006 hPa | 0 mm | - | 42 W/m² | - |
| 1778021766 | 22.78° C | 48% | 1006.1 hPa | 0 mm | - | 39 W/m² | - |
| 1778021462 | 23.33° C | 46% | 1006 hPa | 0 mm | - | 38 W/m² | - |
| 1778021159 | 23.89° C | 44% | 1006.1 hPa | 0 mm | - | 88 W/m² | - |
| 1778020857 | 23.33° C | 47% | 1006.1 hPa | 0 mm | - | 164 W/m² | - |
| 1778020554 | 22.78° C | 49% | 1006.1 hPa | 0 mm | - | 147 W/m² | - |
| 1778020250 | 22.78° C | 47% | 1006.1 hPa | 0 mm | - | 78 W/m² | - |
| 1778019946 | 22.78° C | 46% | 1006.2 hPa | 0 mm | - | 74 W/m² | - |
* Rain latest hour (hover to see other rain measurements)
** Current wind speed in m/s (hover to see current wind gust speed)